Stations météo

réclame
Mon MeteoGroup
Salamanca/Matacan, Espagne (8202): Température de l'air & dewpoint: 11.10.2018 05:00:00 - 17.10.2018 05:00:00 (CEST)Salamanca/Matacan, Espagne (8202): Vitesse du vent: 11.10.2018 05:00:00 - 17.10.2018 05:00:00 (CEST)Salamanca/Matacan, Espagne (8202): Direction du vent: 11.10.2018 05:00:00 - 17.10.2018 05:00:00 (CEST)Salamanca/Matacan, Espagne (8202): visibility: 11.10.2018 05:00:00 - 17.10.2018 05:00:00 (CEST)
Date & Time tt [°C] td [°C] ff [km/h] ff [knt] dd vv [km]
17.10.2018 05:00:00 4,4 4,0 0 0 N 0,4
17.10.2018 04:00:00 4,7 4,1 0 0 N 0,4
17.10.2018 03:00:00 5,5 4,8 0 0 N 5
17.10.2018 02:00:00 6,1 5,4 0 0 N 6
17.10.2018 01:00:00 6,9 6,0 0 0 N 10
17.10.2018 00:00:00 7,5 6,3 0 0 N 10
16.10.2018 23:00:00 8,4 6,9 0 0 N 10
16.10.2018 22:00:00 9,5 7,8 0 0 N 10
16.10.2018 21:00:00 10,9 8,5 0 0 N 10
16.10.2018 20:00:00 12,7 9,1 8 4 N 10
16.10.2018 19:00:00 15,3 9,2 5 3 N 10
16.10.2018 18:00:00 16,3 9,0 5 3 N 10
16.10.2018 17:00:00 15,4 9,1 11 6 NE 10
16.10.2018 16:00:00 15,5 9,3 5 3 N 10
16.10.2018 15:00:00 15,0 9,3 4 2 - 10
16.10.2018 14:00:00 13,8 9,1 4 2 - 10
16.10.2018 13:00:00 12,6 9,6 8 4 ENE 10
16.10.2018 12:00:00 11,3 9,0 15 8 NNE 10
16.10.2018 11:00:00 11,2 9,1 9 5 NNE 10
16.10.2018 10:00:00 11,1 9,0 8 4 NNE 10
16.10.2018 09:00:00 10,0 8,6 11 6 NNE 10
16.10.2018 08:00:00 10,1 8,6 8 4 NE 10
16.10.2018 07:00:00 10,2 8,8 8 4 NNE 10
16.10.2018 06:00:00 10,4 9,0 9 5 NNE 7
16.10.2018 05:00:00 10,3 9,2 9 5 NNE 6
16.10.2018 04:00:00 10,6 9,5 13 7 NNE 6
16.10.2018 03:00:00 10,9 10,1 8 4 N 4,6
16.10.2018 02:00:00 11,3 10,5 4 2 - 4,5
16.10.2018 01:00:00 11,2 10,1 0 0 N 6
16.10.2018 00:00:00 11,0 10,1 5 3 N 5
15.10.2018 23:00:00 11,5 10,1 2 1 - 8
15.10.2018 22:00:00 11,3 10,0 5 3 NNE 9
15.10.2018 21:00:00 11,7 9,8 0 0 N 9
15.10.2018 20:00:00 12,0 9,0 4 2 - 10
15.10.2018 19:00:00 14,3 9,5 13 7 WSW 10
15.10.2018 18:00:00 14,3 9,7 18 10 SW 10
15.10.2018 17:00:00 15,5 9,8 24 13 SW 20
15.10.2018 16:00:00 14,6 10,9 18 10 SW 10
15.10.2018 15:00:00 12,7 10,2 26 14 SW 10
15.10.2018 14:00:00 11,2 9,9 16 9 S 10
15.10.2018 13:00:00 10,5 8,9 15 8 SSW 10
15.10.2018 12:00:00 9,7 8,5 9 5 S 10
15.10.2018 11:00:00 9,0 7,4 18 10 SSW 2,5
15.10.2018 10:00:00 9,1 5,3 16 9 S 10
15.10.2018 09:00:00 8,4 4,8 9 5 SSW 10
15.10.2018 08:00:00 7,7 4,3 8 4 SSE 20
15.10.2018 07:00:00 8,0 4,2 11 6 WSW 10
15.10.2018 06:00:00 7,6 5,3 9 5 WSW 8
15.10.2018 05:00:00 7,1 5,4 11 6 W 8
15.10.2018 04:00:00 6,5 5,0 8 4 W 7
15.10.2018 03:00:00 6,9 5,4 9 5 W 8
15.10.2018 02:00:00 7,8 6,1 15 8 W 7
15.10.2018 01:00:00 8,0 5,8 9 5 WSW 8
15.10.2018 00:00:00 8,3 5,4 11 6 W 8
14.10.2018 23:00:00 9,6 6,2 9 5 W 8
14.10.2018 22:00:00 9,1 5,8 5 3 WNW 9
14.10.2018 21:00:00 10,1 6,7 16 9 WNW 9
14.10.2018 20:00:00 10,3 8,7 16 9 N 7
14.10.2018 19:00:00 12,4 7,7 13 7 NW 10
14.10.2018 18:00:00 13,1 6,6 22 12 WNW 10
14.10.2018 17:00:00 13,2 5,4 18 10 WNW 20
14.10.2018 16:00:00 13,1 6,2 16 9 WNW 10
14.10.2018 15:00:00 12,2 6,1 21 11 WNW 10
14.10.2018 14:00:00 10,8 5,7 24 13 WNW 15
14.10.2018 13:00:00 10,8 5,9 26 14 WNW 10
14.10.2018 12:00:00 10,1 5,6 31 17 WNW 10
14.10.2018 11:00:00 8,4 4,8 39 21 WNW 10
14.10.2018 10:00:00 8,2 5,0 39 21 WNW 10
14.10.2018 09:00:00 9,3 6,4 29 16 WNW 10
14.10.2018 08:00:00 10,2 8,5 34 18 W 10
14.10.2018 07:00:00 11,0 8,9 29 16 W 8
14.10.2018 06:00:00 11,9 9,8 21 11 W 9
14.10.2018 05:00:00 13,8 12,0 18 10 WSW 6
14.10.2018 04:00:00 14,4 11,6 41 22 S 8
14.10.2018 03:00:00 14,7 12,2 42 23 SW 3,6
14.10.2018 02:00:00 19,5 8,5 15 8 SW 10
14.10.2018 01:00:00 18,9 8,5 18 10 S 10
14.10.2018 00:00:00 19,2 9,1 16 9 SSE 10
13.10.2018 23:00:00 15,4 9,1 13 7 SE 10
13.10.2018 22:00:00 17,1 9,3 11 6 SSE 10
13.10.2018 21:00:00 18,7 10,0 9 5 S 10
13.10.2018 20:00:00 20,0 9,8 9 5 SW 10
13.10.2018 19:00:00 24,8 9,5 13 7 WSW 10
13.10.2018 18:00:00 26,4 10,5 9 5 S 10
13.10.2018 17:00:00 26,8 10,1 9 5 SSE 20
13.10.2018 16:00:00 27,1 9,9 11 6 ESE 10
13.10.2018 15:00:00 26,8 10,3 5 3 - 10
13.10.2018 14:00:00 25,3 10,7 11 6 SSE 10
13.10.2018 13:00:00 23,5 11,2 8 4 SE 10
13.10.2018 12:00:00 20,9 10,9 8 4 S 10
13.10.2018 11:00:00 16,5 10,6 9 5 SSE 20
13.10.2018 10:00:00 10,9 9,2 9 5 SSE 10
13.10.2018 09:00:00 9,1 8,0 9 5 SSE 10
13.10.2018 08:00:00 8,0 6,8 8 4 SSE 10
13.10.2018 07:00:00 7,5 6,3 9 5 SE 10
13.10.2018 06:00:00 8,0 6,8 9 5 E 10
13.10.2018 05:00:00 8,4 7,0 4 2 - 10
13.10.2018 04:00:00 9,1 7,4 5 3 E 10
13.10.2018 03:00:00 9,5 8,1 5 3 E 10
13.10.2018 02:00:00 10,9 9,4 5 3 SE 10
13.10.2018 01:00:00 11,7 9,3 4 2 - 10
13.10.2018 00:00:00 13,3 9,7 4 2 - 10
12.10.2018 23:00:00 14,7 10,7 2 1 - 10
12.10.2018 22:00:00 15,3 10,3 8 4 SSE 10
12.10.2018 21:00:00 16,7 10,1 8 4 SSW 10
12.10.2018 20:00:00 17,8 9,7 13 7 WSW 10
12.10.2018 19:00:00 19,9 8,9 16 9 WSW 10
12.10.2018 18:00:00 21,4 9,0 16 9 WSW 10
12.10.2018 17:00:00 22,1 8,9 15 8 WSW 10
12.10.2018 16:00:00 22,4 8,9 18 10 WSW 10
12.10.2018 15:00:00 22,9 7,7 24 13 SW 10
12.10.2018 14:00:00 22,2 8,8 28 15 SW 15
12.10.2018 13:00:00 20,7 10,8 31 17 SW 10
12.10.2018 12:00:00 19,1 10,1 28 15 WSW 10
12.10.2018 11:00:00 17,6 9,5 22 12 WSW 10
12.10.2018 10:00:00 14,3 11,2 9 5 SW 10
12.10.2018 09:00:00 9,5 8,6 5 3 N 10
12.10.2018 08:00:00 10,4 9,0 9 5 SW 12
12.10.2018 07:00:00 11,1 9,5 4 2 NNW 10
12.10.2018 06:00:00 10,8 9,2 4 2 - 10
12.10.2018 05:00:00 11,0 9,3 2 1 - 10
12.10.2018 04:00:00 11,1 9,4 8 4 ESE 10
12.10.2018 03:00:00 13,2 10,9 16 9 W 10
12.10.2018 02:00:00 12,8 10,5 15 8 W 10
12.10.2018 01:00:00 12,6 10,0 11 6 SW 10
12.10.2018 00:00:00 14,9 11,3 15 8 WSW 10
11.10.2018 23:00:00 16,6 12,1 18 10 SW 10
11.10.2018 22:00:00 16,0 12,7 15 8 SW 10
11.10.2018 21:00:00 15,8 12,5 15 8 SW 10
11.10.2018 20:00:00 17,2 12,7 21 11 WSW 10
11.10.2018 19:00:00 18,4 12,4 29 16 WSW 10
11.10.2018 18:00:00 19,5 12,0 39 21 WSW 10
11.10.2018 17:00:00 20,9 12,4 37 20 WSW 10
11.10.2018 16:00:00 20,1 12,3 34 18 SW 10
11.10.2018 15:00:00 19,1 11,6 34 18 SW 10
11.10.2018 14:00:00 20,8 10,6 39 21 SW 20
11.10.2018 13:00:00 19,1 11,1 41 22 SW 10
11.10.2018 12:00:00 18,4 11,9 31 17 SW 10
11.10.2018 11:00:00 16,5 12,3 28 15 SW 10
11.10.2018 10:00:00 16,0 12,4 22 12 SW 10
11.10.2018 09:00:00 15,1 12,6 21 11 SSW 10
11.10.2018 08:00:00 15,2 12,3 22 12 SW 10
11.10.2018 07:00:00 14,3 11,4 16 9 SSW 10
11.10.2018 06:00:00 15,1 11,5 22 12 WSW 10
11.10.2018 05:00:00 14,9 11,1 16 9 WSW 10

tt = Température de l'air
td = dewpoint
ff = Vitesse du vent
dd = Direction du vent
vv = visibility

stations d'obs. à proximité